createdAt,value
2017-11-18T00:00:55.368Z,1013.55
2017-11-18T00:01:56.775Z,1013.59
2017-11-18T00:02:58.244Z,1013.61
2017-11-18T00:03:59.646Z,1013.58
2017-11-18T00:05:01.052Z,1013.59
2017-11-18T00:06:03.787Z,1013.53
2017-11-18T00:07:05.197Z,1013.58
2017-11-18T00:08:06.607Z,1013.53
2017-11-18T00:09:08.013Z,1013.46
2017-11-18T00:10:09.431Z,1013.46
2017-11-18T00:11:10.849Z,1013.44
2017-11-18T00:12:12.248Z,1013.40
2017-11-18T00:13:13.661Z,1013.35
2017-11-18T00:14:15.071Z,1013.37
2017-11-18T00:15:16.479Z,1013.35
2017-11-18T00:16:17.880Z,1013.36
2017-11-18T00:17:19.285Z,1013.34
2017-11-18T00:18:20.711Z,1013.37
2017-11-18T00:19:22.124Z,1013.36
2017-11-18T00:20:23.525Z,1013.35
2017-11-18T00:21:24.946Z,1013.35
2017-11-18T00:22:26.360Z,1013.40
2017-11-18T00:23:30.671Z,1013.41
2017-11-18T00:24:32.083Z,1013.40
2017-11-18T00:25:33.539Z,1013.43
2017-11-18T00:26:34.948Z,1013.41
2017-11-18T00:27:36.363Z,1013.35
2017-11-18T00:28:37.765Z,1013.32
2017-11-18T00:29:39.171Z,1013.35
2017-11-18T00:30:40.574Z,1013.30
2017-11-18T00:31:42.015Z,1013.32
2017-11-18T00:32:43.394Z,1013.26
2017-11-18T00:33:44.820Z,1013.28
2017-11-18T00:34:46.203Z,1013.25
2017-11-18T00:35:47.617Z,1013.26
2017-11-18T00:36:49.044Z,1013.29
2017-11-18T00:37:50.515Z,1013.25
2017-11-18T00:38:51.919Z,1013.30
2017-11-18T00:39:53.333Z,1013.28
2017-11-18T00:40:54.760Z,1013.29
2017-11-18T00:41:56.161Z,1013.30
2017-11-18T00:42:57.562Z,1013.27
2017-11-18T00:43:58.970Z,1013.29
2017-11-18T00:45:00.433Z,1013.28
2017-11-18T00:46:01.842Z,1013.26
2017-11-18T00:47:03.249Z,1013.32
2017-11-18T00:48:04.666Z,1013.30
2017-11-18T00:49:06.066Z,1013.29
2017-11-18T00:50:07.479Z,1013.31
2017-11-18T00:51:08.897Z,1013.28
2017-11-18T00:52:10.301Z,1013.30
2017-11-18T00:53:11.702Z,1013.31
2017-11-18T00:54:13.107Z,1013.33
2017-11-18T00:55:14.534Z,1013.33
2017-11-18T00:56:15.936Z,1013.33
2017-11-18T00:57:17.353Z,1013.33
2017-11-18T00:58:18.791Z,1013.32
2017-11-18T00:59:20.198Z,1013.31
2017-11-18T01:00:23.777Z,1013.32
2017-11-18T01:01:25.189Z,1013.34
2017-11-18T01:02:26.592Z,1013.39
2017-11-18T01:03:28.008Z,1013.37
2017-11-18T01:04:29.409Z,1013.33
2017-11-18T01:05:30.849Z,1013.28
2017-11-18T01:06:32.217Z,1013.23
2017-11-18T01:07:33.647Z,1013.25
2017-11-18T01:08:35.062Z,1013.24
2017-11-18T01:09:36.470Z,1013.25
2017-11-18T01:10:37.882Z,1013.21
2017-11-18T01:11:39.296Z,1013.22
2017-11-18T01:12:40.703Z,1013.23
2017-11-18T01:13:42.113Z,1013.19
2017-11-18T01:14:43.526Z,1013.17
2017-11-18T01:15:44.929Z,1013.11
2017-11-18T01:16:46.339Z,1013.09
2017-11-18T01:17:47.750Z,1013.03
2017-11-18T01:18:49.175Z,1013.06
2017-11-18T01:19:50.576Z,1013.06
2017-11-18T01:20:52.099Z,1013.07
2017-11-18T01:21:53.510Z,1013.06
2017-11-18T01:22:54.907Z,1013.05
2017-11-18T01:23:56.332Z,1013.04
2017-11-18T01:24:57.736Z,1012.98
2017-11-18T01:25:59.148Z,1013.01
2017-11-18T01:27:00.563Z,1012.98
2017-11-18T01:28:01.970Z,1012.91
2017-11-18T01:29:03.395Z,1012.92
2017-11-18T01:30:04.799Z,1012.86
2017-11-18T01:31:06.220Z,1012.89
2017-11-18T01:32:07.641Z,1012.85
2017-11-18T01:33:09.089Z,1012.82
2017-11-18T01:34:10.487Z,1012.80
2017-11-18T01:35:11.899Z,1012.85
2017-11-18T01:36:13.345Z,1012.83
2017-11-18T01:37:14.719Z,1012.85
2017-11-18T01:38:16.130Z,1012.81
2017-11-18T01:39:17.710Z,1012.82
2017-11-18T01:40:19.127Z,1012.80
2017-11-18T01:41:20.660Z,1012.82
2017-11-18T01:42:22.071Z,1012.78
2017-11-18T01:43:23.483Z,1012.75
2017-11-18T01:44:24.892Z,1012.74
2017-11-18T01:45:26.304Z,1012.71
2017-11-18T01:46:27.706Z,1012.71
2017-11-18T01:47:29.123Z,1012.67
2017-11-18T01:48:30.552Z,1012.73
2017-11-18T01:49:31.952Z,1012.69
2017-11-18T01:50:33.357Z,1012.69
2017-11-18T01:51:34.773Z,1012.64
2017-11-18T01:52:36.184Z,1012.57
2017-11-18T01:53:40.362Z,1012.58
2017-11-18T01:54:41.774Z,1012.55
2017-11-18T01:55:43.181Z,1012.54
2017-11-18T01:56:44.579Z,1012.57
2017-11-18T01:57:45.988Z,1012.58
2017-11-18T01:58:47.385Z,1012.58
2017-11-18T01:59:48.798Z,1012.54
2017-11-18T02:00:50.206Z,1012.55
2017-11-18T02:01:51.643Z,1012.52
2017-11-18T02:02:53.028Z,1012.52
2017-11-18T02:03:54.438Z,1012.48
2017-11-18T02:04:55.841Z,1012.46
2017-11-18T02:05:57.349Z,1012.45
2017-11-18T02:06:58.750Z,1012.44
2017-11-18T02:08:00.148Z,1012.49
2017-11-18T02:09:01.549Z,1012.50
2017-11-18T02:10:02.961Z,1012.47
2017-11-18T02:11:04.363Z,1012.43
2017-11-18T02:12:05.769Z,1012.47
2017-11-18T02:13:07.177Z,1012.41
2017-11-18T02:14:08.582Z,1012.39
2017-11-18T02:15:09.982Z,1012.38
2017-11-18T02:16:11.387Z,1012.33
2017-11-18T02:17:12.802Z,1012.28
2017-11-18T02:18:14.215Z,1012.25
2017-11-18T02:19:15.618Z,1012.24
2017-11-18T02:20:17.037Z,1012.18
2017-11-18T02:21:18.447Z,1012.19
2017-11-18T02:22:19.849Z,1012.15
2017-11-18T02:23:21.249Z,1012.17
2017-11-18T02:24:22.648Z,1012.08
2017-11-18T02:25:24.147Z,1012.07
2017-11-18T02:26:25.554Z,1012.07
2017-11-18T02:27:26.991Z,1012.05
2017-11-18T02:28:28.351Z,1012.00
2017-11-18T02:29:29.767Z,1012.06
2017-11-18T02:30:31.189Z,1012.05
2017-11-18T02:31:32.684Z,1012.02
2017-11-18T02:32:34.092Z,1011.98
2017-11-18T02:33:35.499Z,1011.97
2017-11-18T02:34:36.908Z,1011.90
2017-11-18T02:35:38.314Z,1011.89
2017-11-18T02:36:39.712Z,1011.85
2017-11-18T02:37:41.120Z,1011.84
2017-11-18T02:38:42.583Z,1011.83
2017-11-18T02:39:43.997Z,1011.85
2017-11-18T02:40:45.400Z,1011.85
2017-11-18T02:41:46.815Z,1011.83
2017-11-18T02:42:48.286Z,1011.79
2017-11-18T02:43:49.694Z,1011.81
2017-11-18T02:44:51.103Z,1011.83
2017-11-18T02:45:52.568Z,1011.83
2017-11-18T02:46:53.974Z,1011.76
2017-11-18T02:47:55.388Z,1011.74
2017-11-18T02:48:56.801Z,1011.76
2017-11-18T02:49:58.191Z,1011.72
2017-11-18T02:50:59.600Z,1011.68
2017-11-18T02:52:01.025Z,1011.64
2017-11-18T02:53:02.516Z,1011.68
2017-11-18T02:54:03.928Z,1011.68
2017-11-18T02:55:05.339Z,1011.66
2017-11-18T02:56:06.745Z,1011.67
2017-11-18T02:57:08.153Z,1011.66
2017-11-18T02:58:09.553Z,1011.70
2017-11-18T02:59:10.983Z,1011.64
2017-11-18T03:00:12.395Z,1011.64
2017-11-18T03:01:13.798Z,1011.69
2017-11-18T03:02:15.209Z,1011.69
2017-11-18T03:03:16.624Z,1011.67
2017-11-18T03:04:18.032Z,1011.69
2017-11-18T03:05:19.429Z,1011.68
2017-11-18T03:06:20.981Z,1011.64
2017-11-18T03:07:22.392Z,1011.67
2017-11-18T03:08:23.801Z,1011.70
2017-11-18T03:09:25.206Z,1011.70
2017-11-18T03:10:26.605Z,1011.70
2017-11-18T03:11:28.013Z,1011.64
2017-11-18T03:12:29.421Z,1011.62
2017-11-18T03:13:30.919Z,1011.63
2017-11-18T03:14:32.325Z,1011.65
2017-11-18T03:15:33.727Z,1011.60
2017-11-18T03:16:35.135Z,1011.54
2017-11-18T03:17:36.544Z,1011.55
2017-11-18T03:18:37.942Z,1011.56
2017-11-18T03:19:39.348Z,1011.61
2017-11-18T03:20:40.760Z,1011.50
2017-11-18T03:21:42.166Z,1011.56
2017-11-18T03:22:43.578Z,1011.49
2017-11-18T03:23:44.976Z,1011.50
2017-11-18T03:24:46.382Z,1011.51
2017-11-18T03:25:47.801Z,1011.55
2017-11-18T03:26:49.303Z,1011.51
2017-11-18T03:27:50.707Z,1011.51
2017-11-18T03:28:52.116Z,1011.55
2017-11-18T03:29:53.530Z,1011.49
2017-11-18T03:30:54.927Z,1011.48
2017-11-18T03:31:56.334Z,1011.48
2017-11-18T03:32:57.735Z,1011.47
2017-11-18T03:33:59.148Z,1011.43
2017-11-18T03:35:00.555Z,1011.49
2017-11-18T03:36:01.969Z,1011.45
2017-11-18T03:37:03.379Z,1011.44
2017-11-18T03:38:04.792Z,1011.39
2017-11-18T03:39:06.193Z,1011.40
2017-11-18T03:40:07.602Z,1011.39
2017-11-18T03:41:09.010Z,1011.35
2017-11-18T03:42:10.417Z,1011.38
2017-11-18T03:43:11.822Z,1011.41
2017-11-18T03:44:13.229Z,1011.37
2017-11-18T03:45:14.641Z,1011.34
2017-11-18T03:46:16.048Z,1011.34
2017-11-18T03:47:17.458Z,1011.39
2017-11-18T03:48:18.868Z,1011.38
2017-11-18T03:49:20.268Z,1011.38
2017-11-18T03:50:21.675Z,1011.41
2017-11-18T03:51:23.082Z,1011.37
2017-11-18T03:52:24.509Z,1011.42
2017-11-18T03:53:25.917Z,1011.45
2017-11-18T03:54:27.329Z,1011.40
2017-11-18T03:55:28.736Z,1011.44
2017-11-18T03:56:30.151Z,1011.44
2017-11-18T03:57:31.553Z,1011.36
2017-11-18T03:58:32.949Z,1011.36
2017-11-18T03:59:34.357Z,1011.41
2017-11-18T04:00:35.776Z,1011.38
2017-11-18T04:01:37.167Z,1011.33
2017-11-18T04:02:38.574Z,1011.31
2017-11-18T04:03:39.982Z,1011.35
2017-11-18T04:04:41.391Z,1011.35
2017-11-18T04:05:42.799Z,1011.36
2017-11-18T04:06:44.208Z,1011.39
2017-11-18T04:07:45.621Z,1011.36
2017-11-18T04:08:47.022Z,1011.39
2017-11-18T04:09:48.442Z,1011.40
2017-11-18T04:10:49.854Z,1011.39
2017-11-18T04:11:51.267Z,1011.36
2017-11-18T04:12:52.679Z,1011.39
2017-11-18T04:13:54.088Z,1011.37
2017-11-18T04:14:55.494Z,1011.42
2017-11-18T04:15:56.897Z,1011.39
2017-11-18T04:16:58.313Z,1011.37
2017-11-18T04:17:59.788Z,1011.33
2017-11-18T04:19:01.195Z,1011.31
2017-11-18T04:20:02.607Z,1011.28
2017-11-18T04:21:04.015Z,1011.30
2017-11-18T04:22:05.417Z,1011.32
2017-11-18T04:23:06.831Z,1011.26
2017-11-18T04:24:08.229Z,1011.20
2017-11-18T04:25:09.673Z,1011.18
2017-11-18T04:26:11.087Z,1011.21
2017-11-18T04:27:12.497Z,1011.26
2017-11-18T04:28:13.928Z,1011.17
2017-11-18T04:29:15.311Z,1011.19
2017-11-18T04:30:16.722Z,1011.19
2017-11-18T04:31:18.138Z,1011.12
2017-11-18T04:32:19.602Z,1011.14
2017-11-18T04:33:21.018Z,1011.13
2017-11-18T04:34:22.422Z,1011.11
2017-11-18T04:35:23.827Z,1011.05
2017-11-18T04:36:25.227Z,1011.06
2017-11-18T04:37:26.639Z,1011.02
2017-11-18T04:38:28.039Z,1011.06
2017-11-18T04:39:29.446Z,1011.00
2017-11-18T04:40:30.858Z,1010.96
2017-11-18T04:41:32.263Z,1010.99
2017-11-18T04:42:33.674Z,1011.00
2017-11-18T04:43:35.079Z,1010.90
2017-11-18T04:44:36.490Z,1010.89
2017-11-18T04:45:37.977Z,1010.86
2017-11-18T04:46:39.393Z,1010.91
2017-11-18T04:47:40.802Z,1010.86
2017-11-18T04:48:42.202Z,1010.88
2017-11-18T04:49:43.612Z,1010.88
2017-11-18T04:50:45.012Z,1010.79
2017-11-18T04:51:46.437Z,1010.83
2017-11-18T04:52:47.840Z,1010.79
2017-11-18T04:53:49.244Z,1010.77
2017-11-18T04:54:50.655Z,1010.79
2017-11-18T04:55:52.062Z,1010.73
2017-11-18T04:56:53.480Z,1010.74
2017-11-18T04:57:54.883Z,1010.71
2017-11-18T04:58:56.299Z,1010.70
2017-11-18T04:59:57.700Z,1010.70
2017-11-18T05:00:59.111Z,1010.64
2017-11-18T05:02:00.513Z,1010.67
2017-11-18T05:03:01.917Z,1010.64
2017-11-18T05:04:03.325Z,1010.60
2017-11-18T05:05:04.740Z,1010.63
2017-11-18T05:06:06.147Z,1010.57
2017-11-18T05:07:07.553Z,1010.54
2017-11-18T05:08:08.959Z,1010.53
2017-11-18T05:09:10.364Z,1010.55
2017-11-18T05:10:11.779Z,1010.51
2017-11-18T05:11:13.314Z,1010.52
2017-11-18T05:12:14.720Z,1010.49
2017-11-18T05:13:16.127Z,1010.44
2017-11-18T05:14:17.530Z,1010.48
2017-11-18T05:15:18.938Z,1010.54
2017-11-18T05:16:20.345Z,1010.44
2017-11-18T05:17:21.759Z,1010.49
2017-11-18T05:18:23.159Z,1010.38
2017-11-18T05:19:24.564Z,1010.44
2017-11-18T05:20:25.978Z,1010.44
2017-11-18T05:21:27.374Z,1010.44
2017-11-18T05:22:28.795Z,1010.42
2017-11-18T05:23:30.203Z,1010.37
2017-11-18T05:24:31.608Z,1010.40
2017-11-18T05:25:33.010Z,1010.43
2017-11-18T05:26:34.416Z,1010.42
2017-11-18T05:27:35.818Z,1010.43
2017-11-18T05:28:37.229Z,1010.34
2017-11-18T05:29:38.636Z,1010.34
2017-11-18T05:30:40.156Z,1010.33
2017-11-18T05:31:41.555Z,1010.30
2017-11-18T05:32:42.970Z,1010.29
2017-11-18T05:33:44.380Z,1010.35
2017-11-18T05:34:45.796Z,1010.32
2017-11-18T05:35:47.212Z,1010.30
2017-11-18T05:36:48.653Z,1010.27
2017-11-18T05:37:50.059Z,1010.25
2017-11-18T05:38:51.459Z,1010.25
2017-11-18T05:39:52.874Z,1010.20
2017-11-18T05:40:54.284Z,1010.22
2017-11-18T05:41:55.690Z,1010.21
2017-11-18T05:42:57.095Z,1010.17
2017-11-18T05:43:58.593Z,1010.17
2017-11-18T05:45:00.004Z,1010.20
2017-11-18T05:46:01.402Z,1010.17
2017-11-18T05:47:02.808Z,1010.22
2017-11-18T05:48:04.211Z,1010.22
2017-11-18T05:49:05.620Z,1010.13
2017-11-18T05:50:07.028Z,1010.13
2017-11-18T05:51:08.432Z,1010.14
2017-11-18T05:52:09.841Z,1010.07
2017-11-18T05:53:13.313Z,1010.08
2017-11-18T05:54:14.005Z,1010.09
2017-11-18T05:55:15.414Z,1010.09
2017-11-18T05:56:16.834Z,1010.13
2017-11-18T05:57:18.237Z,1010.12
2017-11-18T05:58:19.646Z,1010.08
2017-11-18T05:59:21.063Z,1010.07
2017-11-18T06:00:22.462Z,1010.10
2017-11-18T06:01:23.866Z,1010.09
2017-11-18T06:02:25.262Z,1010.07
2017-11-18T06:03:26.663Z,1010.06
2017-11-18T06:04:28.071Z,1010.04
2017-11-18T06:05:29.516Z,1010.07
2017-11-18T06:06:32.938Z,1010.05
2017-11-18T06:07:34.349Z,1009.97
2017-11-18T06:08:35.756Z,1009.99
2017-11-18T06:09:39.520Z,1009.93
2017-11-18T06:10:40.928Z,1010.05
2017-11-18T06:11:42.335Z,1010.02
2017-11-18T06:12:43.746Z,1010.01
2017-11-18T06:13:45.155Z,1010.01
2017-11-18T06:14:46.571Z,1009.95
2017-11-18T06:15:47.982Z,1009.93
2017-11-18T06:16:49.393Z,1010.00
2017-11-18T06:17:50.805Z,1009.98
2017-11-18T06:18:52.201Z,1009.98
2017-11-18T06:19:53.619Z,1009.97
2017-11-18T06:20:55.019Z,1009.93
2017-11-18T06:21:56.428Z,1009.94
2017-11-18T06:22:57.835Z,1009.93
2017-11-18T06:23:59.242Z,1009.87
2017-11-18T06:25:00.654Z,1009.85
2017-11-18T06:26:02.070Z,1009.91
2017-11-18T06:27:03.475Z,1009.83
2017-11-18T06:28:04.893Z,1009.82
2017-11-18T06:29:06.303Z,1009.83
2017-11-18T06:30:07.722Z,1009.77
2017-11-18T06:31:09.135Z,1009.79
2017-11-18T06:32:10.545Z,1009.79
2017-11-18T06:33:11.954Z,1009.81
2017-11-18T06:34:13.366Z,1009.75
2017-11-18T06:35:14.784Z,1009.78
2017-11-18T06:36:16.189Z,1009.77
2017-11-18T06:37:17.607Z,1009.76
2017-11-18T06:38:19.015Z,1009.83
2017-11-18T06:39:20.423Z,1009.75
2017-11-18T06:40:21.839Z,1009.82
2017-11-18T06:41:23.207Z,1009.80
2017-11-18T06:42:24.617Z,1009.80
2017-11-18T06:43:26.031Z,1009.74
2017-11-18T06:44:27.434Z,1009.73
2017-11-18T06:45:28.842Z,1009.73
2017-11-18T06:46:30.263Z,1009.68
2017-11-18T06:47:31.673Z,1009.72
2017-11-18T06:48:33.256Z,1009.73
2017-11-18T06:49:34.661Z,1009.75
2017-11-18T06:50:36.067Z,1009.77
2017-11-18T06:51:37.476Z,1009.71
2017-11-18T06:52:38.879Z,1009.73
2017-11-18T06:53:40.291Z,1009.74
2017-11-18T06:54:41.698Z,1009.69
2017-11-18T06:55:43.108Z,1009.66
2017-11-18T06:56:45.800Z,1009.65
2017-11-18T06:57:47.204Z,1009.66
2017-11-18T06:58:48.612Z,1009.68
2017-11-18T06:59:50.019Z,1009.75
2017-11-18T07:00:51.421Z,1009.73
2017-11-18T07:01:52.830Z,1009.83
2017-11-18T07:02:54.240Z,1009.80
2017-11-18T07:03:55.840Z,1009.82
2017-11-18T07:04:57.255Z,1009.88
2017-11-18T07:05:58.662Z,1009.82
2017-11-18T07:07:00.076Z,1009.83
2017-11-18T07:08:01.482Z,1009.83
2017-11-18T07:09:02.892Z,1009.80
2017-11-18T07:10:04.303Z,1009.92
2017-11-18T07:11:05.720Z,1009.80
2017-11-18T07:12:07.133Z,1009.89
2017-11-18T07:13:08.544Z,1009.79
2017-11-18T07:14:09.955Z,1009.87
2017-11-18T07:15:11.361Z,1009.82
2017-11-18T07:16:12.768Z,1009.80
2017-11-18T07:17:14.179Z,1009.83
2017-11-18T07:18:15.593Z,1009.82
2017-11-18T07:19:16.998Z,1009.77
2017-11-18T07:20:18.406Z,1009.84
2017-11-18T07:21:19.820Z,1009.89
2017-11-18T07:22:21.227Z,1009.92
2017-11-18T07:23:22.639Z,1009.86
2017-11-18T07:24:24.138Z,1009.88
2017-11-18T07:25:25.550Z,1009.91
2017-11-18T07:26:27.507Z,1009.86
2017-11-18T07:27:28.914Z,1009.92
2017-11-18T07:28:30.382Z,1009.88
2017-11-18T07:29:31.782Z,1009.85
2017-11-18T07:30:33.199Z,1009.88
2017-11-18T07:31:34.603Z,1009.86
2017-11-18T07:32:36.014Z,1009.86
2017-11-18T07:33:37.421Z,1009.85
2017-11-18T07:34:38.836Z,1009.82
2017-11-18T07:35:40.245Z,1009.80
2017-11-18T07:36:41.650Z,1009.76
2017-11-18T07:37:43.055Z,1009.80
2017-11-18T07:38:44.466Z,1009.81
2017-11-18T07:39:45.873Z,1009.84
2017-11-18T07:40:47.284Z,1009.80
2017-11-18T07:41:48.689Z,1009.84
2017-11-18T07:42:50.095Z,1009.75
2017-11-18T07:43:51.505Z,1009.75
2017-11-18T07:44:52.925Z,1009.75
2017-11-18T07:45:54.342Z,1009.71
2017-11-18T07:46:55.753Z,1009.72
2017-11-18T07:47:57.164Z,1009.74
2017-11-18T07:48:58.584Z,1009.65
2017-11-18T07:49:59.992Z,1009.65
2017-11-18T07:51:01.400Z,1009.64
2017-11-18T07:52:02.813Z,1009.67
2017-11-18T07:53:04.218Z,1009.62
2017-11-18T07:54:05.584Z,1009.63
2017-11-18T07:55:06.999Z,1009.61
2017-11-18T07:56:08.491Z,1009.57
2017-11-18T07:57:09.907Z,1009.54
2017-11-18T07:58:11.307Z,1009.54
2017-11-18T07:59:12.715Z,1009.54
2017-11-18T08:00:14.125Z,1009.52
2017-11-18T08:01:15.534Z,1009.43
2017-11-18T08:02:16.945Z,1009.46
2017-11-18T08:03:18.360Z,1009.44
2017-11-18T08:04:19.777Z,1009.42
2017-11-18T08:05:21.205Z,1009.42
2017-11-18T08:06:22.615Z,1009.43
2017-11-18T08:07:24.032Z,1009.39
2017-11-18T08:08:25.448Z,1009.48
2017-11-18T08:09:26.920Z,1009.47
2017-11-18T08:10:28.326Z,1009.41
2017-11-18T08:11:29.737Z,1009.43
2017-11-18T08:12:31.147Z,1009.42
2017-11-18T08:13:32.560Z,1009.43
2017-11-18T08:14:33.981Z,1009.37
2017-11-18T08:15:35.387Z,1009.34
2017-11-18T08:16:36.803Z,1009.33
2017-11-18T08:17:38.230Z,1009.32
2017-11-18T08:18:39.640Z,1009.34
2017-11-18T08:19:41.055Z,1009.41
2017-11-18T08:20:42.472Z,1009.35
2017-11-18T08:21:43.872Z,1009.40
2017-11-18T08:22:45.278Z,1009.39
2017-11-18T08:23:46.691Z,1009.43
2017-11-18T08:24:48.107Z,1009.35
2017-11-18T08:25:49.515Z,1009.43
2017-11-18T08:26:50.937Z,1009.40
2017-11-18T08:27:52.375Z,1009.35
2017-11-18T08:28:53.782Z,1009.38
2017-11-18T08:29:55.191Z,1009.33
2017-11-18T08:30:56.594Z,1009.29
2017-11-18T08:31:58.004Z,1009.30
2017-11-18T08:32:59.419Z,1009.26
2017-11-18T08:34:00.832Z,1009.30
2017-11-18T08:35:02.289Z,1009.30
2017-11-18T08:36:03.691Z,1009.32
2017-11-18T08:37:05.108Z,1009.30
2017-11-18T08:38:06.511Z,1009.34
2017-11-18T08:39:07.917Z,1009.23
2017-11-18T08:40:09.328Z,1009.26
2017-11-18T08:41:10.741Z,1009.24
2017-11-18T08:42:12.146Z,1009.25
2017-11-18T08:43:13.556Z,1009.27
2017-11-18T08:44:14.992Z,1009.13
2017-11-18T08:45:16.383Z,1009.23
2017-11-18T08:46:17.792Z,1009.15
2017-11-18T08:47:19.207Z,1009.11
2017-11-18T08:48:20.621Z,1009.13
2017-11-18T08:49:22.042Z,1009.14
2017-11-18T08:50:23.447Z,1009.10
2017-11-18T08:51:24.856Z,1009.11
2017-11-18T08:52:26.268Z,1009.08
2017-11-18T08:53:27.685Z,1009.12
2017-11-18T08:54:29.097Z,1009.09
2017-11-18T08:55:30.622Z,1009.06
2017-11-18T08:56:32.027Z,1009.08
2017-11-18T08:57:33.440Z,1009.06
2017-11-18T08:58:34.850Z,1009.05
2017-11-18T08:59:36.913Z,1009.10
2017-11-18T09:00:37.622Z,1009.06
2017-11-18T09:01:39.030Z,1009.07
2017-11-18T09:02:40.442Z,1009.04
2017-11-18T09:03:41.851Z,1009.11
2017-11-18T09:04:43.260Z,1009.09
2017-11-18T09:05:44.682Z,1009.08
2017-11-18T09:06:46.112Z,1009.08
2017-11-18T09:07:47.549Z,1009.04
2017-11-18T09:08:48.961Z,1009.01
2017-11-18T09:09:50.921Z,1009.03
2017-11-18T09:10:51.735Z,1008.98
2017-11-18T09:11:53.144Z,1008.99
2017-11-18T09:12:54.555Z,1008.96
2017-11-18T09:13:55.970Z,1008.88
2017-11-18T09:14:57.414Z,1008.82
2017-11-18T09:15:58.830Z,1008.83
2017-11-18T09:17:00.242Z,1008.80
2017-11-18T09:18:02.275Z,1008.73
2017-11-18T09:19:03.682Z,1008.79
2017-11-18T09:20:05.106Z,1008.76
2017-11-18T09:21:06.513Z,1008.71
2017-11-18T09:22:07.922Z,1008.69
2017-11-18T09:23:09.334Z,1008.64
2017-11-18T09:24:10.744Z,1008.66
2017-11-18T09:25:12.176Z,1008.63
2017-11-18T09:26:13.586Z,1008.59
2017-11-18T09:27:14.993Z,1008.54
2017-11-18T09:28:16.398Z,1008.49
2017-11-18T09:29:17.811Z,1008.52
2017-11-18T09:30:19.222Z,1008.55
2017-11-18T09:31:20.639Z,1008.51
2017-11-18T09:32:22.042Z,1008.57
2017-11-18T09:33:23.451Z,1008.57
2017-11-18T09:34:24.857Z,1008.58
2017-11-18T09:35:26.291Z,1008.62
2017-11-18T09:36:27.679Z,1008.64
2017-11-18T09:37:29.121Z,1008.64
2017-11-18T09:38:30.529Z,1008.61
2017-11-18T09:39:31.942Z,1008.62
2017-11-18T09:40:33.360Z,1008.57
2017-11-18T09:41:34.769Z,1008.64
2017-11-18T09:42:36.182Z,1008.62
2017-11-18T09:43:37.596Z,1008.62
2017-11-18T09:44:39.000Z,1008.62
2017-11-18T09:45:40.408Z,1008.52
2017-11-18T09:46:41.826Z,1008.58
2017-11-18T09:47:43.228Z,1008.59
2017-11-18T09:48:44.648Z,1008.59
2017-11-18T09:49:46.054Z,1008.56
2017-11-18T09:50:47.467Z,1008.57
2017-11-18T09:51:48.876Z,1008.59
2017-11-18T09:52:50.289Z,1008.56
2017-11-18T09:53:51.712Z,1008.58
2017-11-18T09:54:53.119Z,1008.51
2017-11-18T09:55:55.479Z,1008.55
2017-11-18T09:56:56.893Z,1008.55
2017-11-18T09:57:58.304Z,1008.55
2017-11-18T09:58:59.715Z,1008.53
2017-11-18T10:00:01.126Z,1008.49
2017-11-18T10:01:02.543Z,1008.48
2017-11-18T10:02:03.946Z,1008.59
2017-11-18T10:03:05.368Z,1008.62
2017-11-18T10:04:06.770Z,1008.66
2017-11-18T10:05:08.182Z,1008.62
2017-11-18T10:06:09.589Z,1008.63
2017-11-18T10:07:10.993Z,1008.63
2017-11-18T10:08:12.406Z,1008.58
2017-11-18T10:09:13.819Z,1008.62
2017-11-18T10:10:15.225Z,1008.62
2017-11-18T10:11:16.639Z,1008.56
2017-11-18T10:12:18.042Z,1008.56
2017-11-18T10:13:19.452Z,1008.55
2017-11-18T10:14:20.870Z,1008.53
2017-11-18T10:15:22.305Z,1008.54
2017-11-18T10:16:23.709Z,1008.58
2017-11-18T10:17:25.134Z,1008.56
2017-11-18T10:18:26.553Z,1008.57
2017-11-18T10:19:27.963Z,1008.60
2017-11-18T10:20:29.372Z,1008.54
2017-11-18T10:21:30.782Z,1008.56
2017-11-18T10:22:32.211Z,1008.50
2017-11-18T10:23:33.632Z,1008.49
2017-11-18T10:24:35.175Z,1008.42
2017-11-18T10:25:36.591Z,1008.51
2017-11-18T10:26:37.991Z,1008.49
2017-11-18T10:27:39.477Z,1008.40
2017-11-18T10:28:40.896Z,1008.36
2017-11-18T10:29:42.302Z,1008.38
2017-11-18T10:30:43.714Z,1008.37
2017-11-18T10:31:45.118Z,1008.35
2017-11-18T10:32:46.522Z,1008.33
2017-11-18T10:33:47.942Z,1008.28
2017-11-18T10:34:49.365Z,1008.28
2017-11-18T10:35:50.764Z,1008.25
2017-11-18T10:36:52.175Z,1008.27
2017-11-18T10:37:53.608Z,1008.22
2017-11-18T10:38:55.005Z,1008.18
2017-11-18T10:39:56.413Z,1008.15
2017-11-18T10:40:57.824Z,1008.20
2017-11-18T10:41:59.233Z,1008.14
2017-11-18T10:43:00.687Z,1008.15
2017-11-18T10:44:02.080Z,1008.10
2017-11-18T10:45:03.520Z,1008.06
2017-11-18T10:46:04.935Z,1008.07
2017-11-18T10:47:06.352Z,1007.98
2017-11-18T10:48:07.760Z,1007.98
2017-11-18T10:49:09.169Z,1007.85
2017-11-18T10:50:10.625Z,1007.87
2017-11-18T10:51:12.026Z,1007.81
2017-11-18T10:52:13.465Z,1007.85
2017-11-18T10:53:14.878Z,1007.82
2017-11-18T10:54:16.286Z,1007.78
2017-11-18T10:55:17.689Z,1007.76
2017-11-18T10:56:19.059Z,1007.80
2017-11-18T10:57:20.474Z,1007.75
2017-11-18T10:58:21.879Z,1007.71
2017-11-18T10:59:23.371Z,1007.78
2017-11-18T11:00:24.855Z,1007.72
2017-11-18T11:01:26.278Z,1007.73
2017-11-18T11:02:27.695Z,1007.76
2017-11-18T11:03:29.107Z,1007.75
2017-11-18T11:04:30.552Z,1007.68
2017-11-18T11:05:31.955Z,1007.71
2017-11-18T11:06:33.365Z,1007.67
2017-11-18T11:07:34.836Z,1007.69
2017-11-18T11:08:36.253Z,1007.76
2017-11-18T11:09:37.660Z,1007.70
2017-11-18T11:10:39.073Z,1007.71
2017-11-18T11:11:40.481Z,1007.81
2017-11-18T11:12:41.894Z,1007.71
2017-11-18T11:13:43.303Z,1007.64
2017-11-18T11:14:44.731Z,1007.53
2017-11-18T11:15:46.136Z,1007.47
2017-11-18T11:16:47.549Z,1007.39
2017-11-18T11:17:48.964Z,1007.34
2017-11-18T11:18:50.704Z,1007.32
2017-11-18T11:19:52.123Z,1007.36
2017-11-18T11:20:53.533Z,1007.34
2017-11-18T11:21:54.948Z,1007.34
2017-11-18T11:22:56.360Z,1007.37
2017-11-18T11:23:57.785Z,1007.30
2017-11-18T11:24:59.194Z,1007.25
2017-11-18T11:26:00.606Z,1007.28
2017-11-18T11:27:02.018Z,1007.24
2017-11-18T11:28:03.436Z,1007.21
2017-11-18T11:29:04.904Z,1007.20
2017-11-18T11:30:06.336Z,1007.25
2017-11-18T11:31:07.910Z,1007.23
2017-11-18T11:32:09.322Z,1007.19
2017-11-18T11:33:10.747Z,1007.25
2017-11-18T11:34:12.668Z,1007.17
2017-11-18T11:35:14.395Z,1007.17
2017-11-18T11:36:15.813Z,1007.14
2017-11-18T11:37:17.360Z,1007.18
2017-11-18T11:38:18.922Z,1007.18
2017-11-18T11:39:20.331Z,1007.12
2017-11-18T11:40:21.770Z,1007.15
2017-11-18T11:41:23.171Z,1007.10
2017-11-18T11:42:24.586Z,1007.05
2017-11-18T11:43:26.204Z,1007.08
2017-11-18T11:44:27.670Z,1007.03
2017-11-18T11:45:29.088Z,1006.97
2017-11-18T11:46:30.503Z,1006.94
2017-11-18T11:47:31.921Z,1006.92
2017-11-18T11:48:33.330Z,1006.88
2017-11-18T11:49:34.744Z,1006.85
2017-11-18T11:50:36.149Z,1007.07
2017-11-18T11:51:37.562Z,1006.93
2017-11-18T11:53:22.761Z,1006.98
2017-11-18T11:54:25.943Z,1006.95
2017-11-18T11:55:29.701Z,1006.93
2017-11-18T11:56:31.862Z,1006.86
2017-11-18T11:57:33.299Z,1006.82
2017-11-18T11:58:35.777Z,1006.89
2017-11-18T11:59:37.122Z,1006.93
2017-11-18T12:00:38.529Z,1006.92
2017-11-18T12:01:39.975Z,1006.83
2017-11-18T12:02:41.396Z,1006.93
2017-11-18T12:03:42.816Z,1006.84
2017-11-18T12:04:44.229Z,1006.80
2017-11-18T12:05:45.686Z,1006.89
2017-11-18T12:06:47.093Z,1006.87
2017-11-18T12:07:48.556Z,1006.71
2017-11-18T12:08:49.934Z,1006.72
2017-11-18T12:09:51.356Z,1006.67
2017-11-18T12:10:52.760Z,1006.61
2017-11-18T12:11:54.181Z,1006.60
2017-11-18T12:12:55.672Z,1006.62
2017-11-18T12:13:57.088Z,1006.70
2017-11-18T12:14:58.505Z,1006.63
2017-11-18T12:15:59.919Z,1006.74
2017-11-18T12:17:01.336Z,1006.78
2017-11-18T12:18:02.754Z,1006.76
2017-11-18T12:19:13.930Z,1006.74
2017-11-18T12:20:19.525Z,1006.70
2017-11-18T12:21:25.720Z,1006.66
2017-11-18T12:22:32.873Z,1006.71
2017-11-18T12:23:38.850Z,1006.65
2017-11-18T12:24:40.295Z,1006.66